sensor_id;sensor_type;location;lat;lon;timestamp;temperature;humidity
17341;DHT22;8788;49.930;8.660;2023-02-12T00:00:06;7.90;99.90
17341;DHT22;8788;49.930;8.660;2023-02-12T00:02:40;8.00;99.90
17341;DHT22;8788;49.930;8.660;2023-02-12T00:05:08;8.00;99.90
17341;DHT22;8788;49.930;8.660;2023-02-12T00:07:36;8.00;99.90
17341;DHT22;8788;49.930;8.660;2023-02-12T00:10:03;8.00;99.90
17341;DHT22;8788;49.930;8.660;2023-02-12T00:12:31;8.00;99.90
17341;DHT22;8788;49.930;8.660;2023-02-12T00:14:58;8.00;99.90
17341;DHT22;8788;49.930;8.660;2023-02-12T00:17:25;8.00;99.90
17341;DHT22;8788;49.930;8.660;2023-02-12T00:19:52;8.00;99.90
17341;DHT22;8788;49.930;8.660;2023-02-12T00:22:19;8.00;99.90
17341;DHT22;8788;49.930;8.660;2023-02-12T00:24:47;8.00;99.90
17341;DHT22;8788;49.930;8.660;2023-02-12T00:27:14;8.00;99.90
17341;DHT22;8788;49.930;8.660;2023-02-12T00:29:41;8.00;99.90
17341;DHT22;8788;49.930;8.660;2023-02-12T00:32:08;7.90;99.90
17341;DHT22;8788;49.930;8.660;2023-02-12T00:34:36;7.90;99.90
17341;DHT22;8788;49.930;8.660;2023-02-12T00:37:03;7.90;99.90
17341;DHT22;8788;49.930;8.660;2023-02-12T00:39:30;7.90;99.90
17341;DHT22;8788;49.930;8.660;2023-02-12T00:41:59;7.90;99.90
17341;DHT22;8788;49.930;8.660;2023-02-12T00:44:26;7.90;99.90
17341;DHT22;8788;49.930;8.660;2023-02-12T00:46:54;7.90;99.90
17341;DHT22;8788;49.930;8.660;2023-02-12T00:49:22;7.90;99.90
17341;DHT22;8788;49.930;8.660;2023-02-12T00:51:49;7.90;99.90
17341;DHT22;8788;49.930;8.660;2023-02-12T00:54:16;7.90;99.90
17341;DHT22;8788;49.930;8.660;2023-02-12T00:56:43;7.90;99.90
17341;DHT22;8788;49.930;8.660;2023-02-12T00:59:11;7.80;99.90
17341;DHT22;8788;49.930;8.660;2023-02-12T01:01:38;7.80;99.90
17341;DHT22;8788;49.930;8.660;2023-02-12T01:04:06;7.80;99.90
17341;DHT22;8788;49.930;8.660;2023-02-12T01:06:33;7.80;99.90
17341;DHT22;8788;49.930;8.660;2023-02-12T01:09:00;7.80;99.90
17341;DHT22;8788;49.930;8.660;2023-02-12T01:11:27;7.80;99.90
17341;DHT22;8788;49.930;8.660;2023-02-12T01:13:54;7.80;99.90
17341;DHT22;8788;49.930;8.660;2023-02-12T01:16:23;7.80;99.90
17341;DHT22;8788;49.930;8.660;2023-02-12T01:18:51;7.80;99.90
17341;DHT22;8788;49.930;8.660;2023-02-12T01:21:20;7.80;99.90
17341;DHT22;8788;49.930;8.660;2023-02-12T01:23:48;7.80;99.90
17341;DHT22;8788;49.930;8.660;2023-02-12T01:26:16;7.80;99.90
17341;DHT22;8788;49.930;8.660;2023-02-12T01:28:47;7.80;99.90
17341;DHT22;8788;49.930;8.660;2023-02-12T01:31:17;7.80;99.90
17341;DHT22;8788;49.930;8.660;2023-02-12T01:33:48;7.80;99.90
17341;DHT22;8788;49.930;8.660;2023-02-12T01:36:16;7.80;99.90
17341;DHT22;8788;49.930;8.660;2023-02-12T01:38:43;7.80;99.90
17341;DHT22;8788;49.930;8.660;2023-02-12T01:41:13;7.80;99.90
17341;DHT22;8788;49.930;8.660;2023-02-12T01:43:42;7.80;99.90
17341;DHT22;8788;49.930;8.660;2023-02-12T01:46:11;7.80;99.90
17341;DHT22;8788;49.930;8.660;2023-02-12T01:48:40;7.80;99.90
17341;DHT22;8788;49.930;8.660;2023-02-12T01:51:13;7.70;99.90
17341;DHT22;8788;49.930;8.660;2023-02-12T01:53:46;7.70;99.90
17341;DHT22;8788;49.930;8.660;2023-02-12T01:56:15;7.70;99.90
17341;DHT22;8788;49.930;8.660;2023-02-12T01:58:45;7.80;99.90
17341;DHT22;8788;49.930;8.660;2023-02-12T02:01:17;7.70;99.90
17341;DHT22;8788;49.930;8.660;2023-02-12T02:03:47;7.80;99.90
17341;DHT22;8788;49.930;8.660;2023-02-12T02:06:21;7.80;99.90
17341;DHT22;8788;49.930;8.660;2023-02-12T02:08:52;7.80;99.90
17341;DHT22;8788;49.930;8.660;2023-02-12T02:11:20;7.80;99.90
17341;DHT22;8788;49.930;8.660;2023-02-12T02:14:04;7.70;99.90
17341;DHT22;8788;49.930;8.660;2023-02-12T02:16:56;7.80;99.90
17341;DHT22;8788;49.930;8.660;2023-02-12T02:19:34;7.70;99.90
17341;DHT22;8788;49.930;8.660;2023-02-12T02:22:27;7.80;99.90
17341;DHT22;8788;49.930;8.660;2023-02-12T02:25:33;7.80;99.90
17341;DHT22;8788;49.930;8.660;2023-02-12T02:28:10;7.80;99.90
17341;DHT22;8788;49.930;8.660;2023-02-12T02:30:42;7.80;99.90
17341;DHT22;8788;49.930;8.660;2023-02-12T02:33:23;7.80;99.90
17341;DHT22;8788;49.930;8.660;2023-02-12T02:35:56;7.80;99.90
17341;DHT22;8788;49.930;8.660;2023-02-12T02:38:32;7.80;99.90
17341;DHT22;8788;49.930;8.660;2023-02-12T02:41:03;7.80;99.90
17341;DHT22;8788;49.930;8.660;2023-02-12T02:43:35;7.90;99.90
17341;DHT22;8788;49.930;8.660;2023-02-12T02:46:08;7.90;99.90
17341;DHT22;8788;49.930;8.660;2023-02-12T02:48:39;7.90;99.90
17341;DHT22;8788;49.930;8.660;2023-02-12T02:51:13;7.90;99.90
17341;DHT22;8788;49.930;8.660;2023-02-12T02:53:43;7.90;99.90
17341;DHT22;8788;49.930;8.660;2023-02-12T02:56:13;7.90;99.90
17341;DHT22;8788;49.930;8.660;2023-02-12T02:58:45;7.80;99.90
17341;DHT22;8788;49.930;8.660;2023-02-12T03:01:17;7.70;99.90
17341;DHT22;8788;49.930;8.660;2023-02-12T03:03:49;7.70;99.90
17341;DHT22;8788;49.930;8.660;2023-02-12T03:06:23;7.70;99.90
17341;DHT22;8788;49.930;8.660;2023-02-12T03:08:55;7.70;99.90
17341;DHT22;8788;49.930;8.660;2023-02-12T03:11:25;7.70;99.90
17341;DHT22;8788;49.930;8.660;2023-02-12T03:13:58;7.70;99.90
17341;DHT22;8788;49.930;8.660;2023-02-12T03:16:31;7.70;99.90
17341;DHT22;8788;49.930;8.660;2023-02-12T03:19:05;7.70;99.90
17341;DHT22;8788;49.930;8.660;2023-02-12T03:21:40;7.70;99.90
17341;DHT22;8788;49.930;8.660;2023-02-12T03:24:19;7.70;99.90
17341;DHT22;8788;49.930;8.660;2023-02-12T03:26:54;7.70;99.90
17341;DHT22;8788;49.930;8.660;2023-02-12T03:29:24;7.70;99.90
17341;DHT22;8788;49.930;8.660;2023-02-12T03:32:01;7.70;99.90
17341;DHT22;8788;49.930;8.660;2023-02-12T03:34:43;7.70;99.90
17341;DHT22;8788;49.930;8.660;2023-02-12T03:37:15;7.70;99.90
17341;DHT22;8788;49.930;8.660;2023-02-12T03:39:49;7.80;99.90
17341;DHT22;8788;49.930;8.660;2023-02-12T03:42:24;7.80;99.90
17341;DHT22;8788;49.930;8.660;2023-02-12T03:44:56;7.80;99.90
17341;DHT22;8788;49.930;8.660;2023-02-12T03:47:34;7.80;99.90
17341;DHT22;8788;49.930;8.660;2023-02-12T03:50:09;7.80;99.90
17341;DHT22;8788;49.930;8.660;2023-02-12T03:52:40;7.80;99.90
17341;DHT22;8788;49.930;8.660;2023-02-12T03:55:08;7.80;99.90
17341;DHT22;8788;49.930;8.660;2023-02-12T03:57:39;7.80;99.90
17341;DHT22;8788;49.930;8.660;2023-02-12T04:00:10;7.80;99.90
17341;DHT22;8788;49.930;8.660;2023-02-12T04:02:42;7.80;99.90
17341;DHT22;8788;49.930;8.660;2023-02-12T04:05:17;7.80;99.90
17341;DHT22;8788;49.930;8.660;2023-02-12T04:07:44;7.80;99.90
17341;DHT22;8788;49.930;8.660;2023-02-12T04:10:12;7.80;99.90
17341;DHT22;8788;49.930;8.660;2023-02-12T04:12:42;7.80;99.90
17341;DHT22;8788;49.930;8.660;2023-02-12T04:18:25;7.80;99.90
17341;DHT22;8788;49.930;8.660;2023-02-12T04:21:00;7.80;99.90
17341;DHT22;8788;49.930;8.660;2023-02-12T04:23:42;7.80;99.90
17341;DHT22;8788;49.930;8.660;2023-02-12T04:26:17;7.80;99.90
17341;DHT22;8788;49.930;8.660;2023-02-12T04:28:55;7.80;99.90
17341;DHT22;8788;49.930;8.660;2023-02-12T04:31:28;7.80;99.90
17341;DHT22;8788;49.930;8.660;2023-02-12T04:34:04;7.80;99.90
17341;DHT22;8788;49.930;8.660;2023-02-12T04:36:36;7.80;99.90
17341;DHT22;8788;49.930;8.660;2023-02-12T04:39:07;7.80;99.90
17341;DHT22;8788;49.930;8.660;2023-02-12T04:41:36;7.80;99.90
17341;DHT22;8788;49.930;8.660;2023-02-12T04:44:18;7.90;99.90
17341;DHT22;8788;49.930;8.660;2023-02-12T04:46:45;7.90;99.90
17341;DHT22;8788;49.930;8.660;2023-02-12T04:49:16;7.80;99.90
17341;DHT22;8788;49.930;8.660;2023-02-12T04:51:43;7.90;99.90
17341;DHT22;8788;49.930;8.660;2023-02-12T04:54:11;7.90;99.90
17341;DHT22;8788;49.930;8.660;2023-02-12T04:56:41;7.90;99.90
17341;DHT22;8788;49.930;8.660;2023-02-12T04:59:08;7.90;99.90
17341;DHT22;8788;49.930;8.660;2023-02-12T05:01:36;7.90;99.90
17341;DHT22;8788;49.930;8.660;2023-02-12T05:04:04;7.90;99.90
17341;DHT22;8788;49.930;8.660;2023-02-12T05:06:35;7.80;99.90
17341;DHT22;8788;49.930;8.660;2023-02-12T05:09:03;7.80;99.90
17341;DHT22;8788;49.930;8.660;2023-02-12T05:11:30;7.80;99.90
17341;DHT22;8788;49.930;8.660;2023-02-12T05:13:57;7.80;99.90
17341;DHT22;8788;49.930;8.660;2023-02-12T05:16:25;7.80;99.90
17341;DHT22;8788;49.930;8.660;2023-02-12T05:18:52;7.80;99.90
17341;DHT22;8788;49.930;8.660;2023-02-12T05:21:19;7.80;99.90
17341;DHT22;8788;49.930;8.660;2023-02-12T05:23:47;7.80;99.90
17341;DHT22;8788;49.930;8.660;2023-02-12T05:26:16;7.80;99.90
17341;DHT22;8788;49.930;8.660;2023-02-12T05:28:44;7.80;99.90
17341;DHT22;8788;49.930;8.660;2023-02-12T05:31:13;7.80;99.90
17341;DHT22;8788;49.930;8.660;2023-02-12T05:33:41;7.80;99.90
17341;DHT22;8788;49.930;8.660;2023-02-12T05:36:10;7.80;99.90
17341;DHT22;8788;49.930;8.660;2023-02-12T05:38:37;7.80;99.90
17341;DHT22;8788;49.930;8.660;2023-02-12T05:41:07;7.80;99.90
17341;DHT22;8788;49.930;8.660;2023-02-12T05:43:35;7.70;99.90
17341;DHT22;8788;49.930;8.660;2023-02-12T05:46:04;7.70;99.90
17341;DHT22;8788;49.930;8.660;2023-02-12T05:48:32;7.70;99.90
17341;DHT22;8788;49.930;8.660;2023-02-12T05:51:03;7.70;99.90
17341;DHT22;8788;49.930;8.660;2023-02-12T05:53:30;7.70;99.90
17341;DHT22;8788;49.930;8.660;2023-02-12T05:56:14;7.70;99.90
17341;DHT22;8788;49.930;8.660;2023-02-12T05:58:44;7.70;99.90
17341;DHT22;8788;49.930;8.660;2023-02-12T06:01:14;7.60;99.90
17341;DHT22;8788;49.930;8.660;2023-02-12T06:03:41;7.60;99.90
17341;DHT22;8788;49.930;8.660;2023-02-12T06:06:09;7.60;99.90
17341;DHT22;8788;49.930;8.660;2023-02-12T06:08:36;7.60;99.90
17341;DHT22;8788;49.930;8.660;2023-02-12T06:11:05;7.60;99.90
17341;DHT22;8788;49.930;8.660;2023-02-12T06:13:34;7.60;99.90
17341;DHT22;8788;49.930;8.660;2023-02-12T06:16:01;7.60;99.90
17341;DHT22;8788;49.930;8.660;2023-02-12T06:18:29;7.60;99.90
17341;DHT22;8788;49.930;8.660;2023-02-12T06:20:56;7.60;99.90
17341;DHT22;8788;49.930;8.660;2023-02-12T06:23:24;7.60;99.90
17341;DHT22;8788;49.930;8.660;2023-02-12T06:25:54;7.60;99.90
17341;DHT22;8788;49.930;8.660;2023-02-12T06:28:22;7.60;99.90
17341;DHT22;8788;49.930;8.660;2023-02-12T06:30:50;7.70;99.90
17341;DHT22;8788;49.930;8.660;2023-02-12T06:33:17;7.70;99.90
17341;DHT22;8788;49.930;8.660;2023-02-12T06:35:44;7.70;99.90
17341;DHT22;8788;49.930;8.660;2023-02-12T06:38:11;7.70;99.90
17341;DHT22;8788;49.930;8.660;2023-02-12T06:40:39;7.70;99.90
17341;DHT22;8788;49.930;8.660;2023-02-12T06:43:06;7.70;99.90
17341;DHT22;8788;49.930;8.660;2023-02-12T06:45:34;7.70;99.90
17341;DHT22;8788;49.930;8.660;2023-02-12T06:48:02;7.70;99.90
17341;DHT22;8788;49.930;8.660;2023-02-12T06:50:30;7.70;99.90
17341;DHT22;8788;49.930;8.660;2023-02-12T06:52:57;7.70;99.90
17341;DHT22;8788;49.930;8.660;2023-02-12T06:55:25;7.70;99.90
17341;DHT22;8788;49.930;8.660;2023-02-12T06:57:52;7.70;99.90
17341;DHT22;8788;49.930;8.660;2023-02-12T07:00:20;7.70;99.90
17341;DHT22;8788;49.930;8.660;2023-02-12T07:02:52;7.80;99.90
17341;DHT22;8788;49.930;8.660;2023-02-12T07:05:21;7.80;99.90
17341;DHT22;8788;49.930;8.660;2023-02-12T07:07:48;7.80;99.90
17341;DHT22;8788;49.930;8.660;2023-02-12T07:10:16;7.80;99.90
17341;DHT22;8788;49.930;8.660;2023-02-12T07:12:43;7.80;99.90
17341;DHT22;8788;49.930;8.660;2023-02-12T07:15:10;7.90;99.90
17341;DHT22;8788;49.930;8.660;2023-02-12T07:17:37;7.90;99.90
17341;DHT22;8788;49.930;8.660;2023-02-12T07:20:05;7.90;99.90
17341;DHT22;8788;49.930;8.660;2023-02-12T07:22:36;8.00;99.90
17341;DHT22;8788;49.930;8.660;2023-02-12T07:25:03;7.90;99.90
17341;DHT22;8788;49.930;8.660;2023-02-12T07:27:30;7.70;99.90
17341;DHT22;8788;49.930;8.660;2023-02-12T07:29:57;7.70;99.90
17341;DHT22;8788;49.930;8.660;2023-02-12T07:32:24;7.70;99.90
17341;DHT22;8788;49.930;8.660;2023-02-12T07:34:51;7.70;99.90
17341;DHT22;8788;49.930;8.660;2023-02-12T07:37:18;7.70;99.90
17341;DHT22;8788;49.930;8.660;2023-02-12T07:39:48;7.70;99.90
17341;DHT22;8788;49.930;8.660;2023-02-12T07:42:16;7.80;99.90
17341;DHT22;8788;49.930;8.660;2023-02-12T07:44:48;7.80;99.90
17341;DHT22;8788;49.930;8.660;2023-02-12T07:47:15;7.80;99.90
17341;DHT22;8788;49.930;8.660;2023-02-12T07:49:42;7.90;99.90
17341;DHT22;8788;49.930;8.660;2023-02-12T07:52:09;7.90;99.90
17341;DHT22;8788;49.930;8.660;2023-02-12T07:54:37;7.90;99.90
17341;DHT22;8788;49.930;8.660;2023-02-12T07:57:05;7.90;99.90
17341;DHT22;8788;49.930;8.660;2023-02-12T07:59:32;7.90;99.90
17341;DHT22;8788;49.930;8.660;2023-02-12T08:01:59;7.90;99.90
17341;DHT22;8788;49.930;8.660;2023-02-12T08:04:27;7.90;99.90
17341;DHT22;8788;49.930;8.660;2023-02-12T08:06:55;7.90;99.90
17341;DHT22;8788;49.930;8.660;2023-02-12T08:09:23;7.90;99.90
17341;DHT22;8788;49.930;8.660;2023-02-12T08:11:51;7.90;99.90
17341;DHT22;8788;49.930;8.660;2023-02-12T08:14:21;8.00;99.90
17341;DHT22;8788;49.930;8.660;2023-02-12T08:16:48;8.00;99.90
17341;DHT22;8788;49.930;8.660;2023-02-12T08:19:16;8.10;99.90
17341;DHT22;8788;49.930;8.660;2023-02-12T08:21:43;8.20;99.90
17341;DHT22;8788;49.930;8.660;2023-02-12T08:24:11;8.20;99.90
17341;DHT22;8788;49.930;8.660;2023-02-12T08:26:39;8.30;99.90
17341;DHT22;8788;49.930;8.660;2023-02-12T08:29:07;8.30;99.90
17341;DHT22;8788;49.930;8.660;2023-02-12T08:31:37;8.40;99.90
17341;DHT22;8788;49.930;8.660;2023-02-12T08:34:06;8.40;99.90
17341;DHT22;8788;49.930;8.660;2023-02-12T08:36:38;8.50;99.90
17341;DHT22;8788;49.930;8.660;2023-02-12T08:39:06;8.50;99.90
17341;DHT22;8788;49.930;8.660;2023-02-12T08:41:34;8.60;99.90
17341;DHT22;8788;49.930;8.660;2023-02-12T08:44:03;8.70;99.90
17341;DHT22;8788;49.930;8.660;2023-02-12T08:46:32;8.70;99.90
17341;DHT22;8788;49.930;8.660;2023-02-12T08:49:03;8.80;99.90
17341;DHT22;8788;49.930;8.660;2023-02-12T08:51:32;8.90;99.90
17341;DHT22;8788;49.930;8.660;2023-02-12T08:54:02;9.00;99.90
17341;DHT22;8788;49.930;8.660;2023-02-12T08:56:30;9.00;99.90
17341;DHT22;8788;49.930;8.660;2023-02-12T08:58:59;9.00;99.90
17341;DHT22;8788;49.930;8.660;2023-02-12T09:01:29;9.00;99.90
17341;DHT22;8788;49.930;8.660;2023-02-12T09:03:56;9.10;99.90
17341;DHT22;8788;49.930;8.660;2023-02-12T09:06:25;9.10;99.90
17341;DHT22;8788;49.930;8.660;2023-02-12T09:08:53;9.20;99.90
17341;DHT22;8788;49.930;8.660;2023-02-12T09:11:22;9.20;99.90
17341;DHT22;8788;49.930;8.660;2023-02-12T09:13:56;9.20;99.90
17341;DHT22;8788;49.930;8.660;2023-02-12T09:16:24;9.30;99.90
17341;DHT22;8788;49.930;8.660;2023-02-12T09:18:51;9.30;99.90
17341;DHT22;8788;49.930;8.660;2023-02-12T09:21:20;9.40;99.90
17341;DHT22;8788;49.930;8.660;2023-02-12T09:23:48;9.40;99.90
17341;DHT22;8788;49.930;8.660;2023-02-12T09:26:19;9.50;99.90
17341;DHT22;8788;49.930;8.660;2023-02-12T09:28:47;9.50;99.90
17341;DHT22;8788;49.930;8.660;2023-02-12T09:31:17;9.60;99.90
17341;DHT22;8788;49.930;8.660;2023-02-12T09:33:45;9.70;99.90
17341;DHT22;8788;49.930;8.660;2023-02-12T09:36:15;9.80;99.90
17341;DHT22;8788;49.930;8.660;2023-02-12T09:38:42;9.80;99.90
17341;DHT22;8788;49.930;8.660;2023-02-12T09:41:36;9.80;99.90
17341;DHT22;8788;49.930;8.660;2023-02-12T09:44:11;9.90;99.90
17341;DHT22;8788;49.930;8.660;2023-02-12T09:46:46;9.90;99.90
17341;DHT22;8788;49.930;8.660;2023-02-12T09:49:21;9.90;99.90
17341;DHT22;8788;49.930;8.660;2023-02-12T09:51:51;9.80;99.90
17341;DHT22;8788;49.930;8.660;2023-02-12T09:54:21;9.90;99.90
17341;DHT22;8788;49.930;8.660;2023-02-12T09:56:53;9.90;99.90
17341;DHT22;8788;49.930;8.660;2023-02-12T09:59:28;9.90;99.90
17341;DHT22;8788;49.930;8.660;2023-02-12T10:01:57;10.00;99.90
17341;DHT22;8788;49.930;8.660;2023-02-12T10:04:25;10.10;99.90
17341;DHT22;8788;49.930;8.660;2023-02-12T10:07:00;10.10;99.90
17341;DHT22;8788;49.930;8.660;2023-02-12T10:09:43;10.10;99.90
17341;DHT22;8788;49.930;8.660;2023-02-12T10:12:19;10.20;99.90
17341;DHT22;8788;49.930;8.660;2023-02-12T10:15:02;10.30;99.90
17341;DHT22;8788;49.930;8.660;2023-02-12T10:17:40;10.40;99.90
17341;DHT22;8788;49.930;8.660;2023-02-12T10:20:31;10.50;99.90
17341;DHT22;8788;49.930;8.660;2023-02-12T10:23:20;10.50;99.90
17341;DHT22;8788;49.930;8.660;2023-02-12T10:25:51;10.60;99.90
17341;DHT22;8788;49.930;8.660;2023-02-12T10:28:24;10.70;99.90
17341;DHT22;8788;49.930;8.660;2023-02-12T10:30:54;10.80;99.90
17341;DHT22;8788;49.930;8.660;2023-02-12T10:33:27;10.90;99.90
17341;DHT22;8788;49.930;8.660;2023-02-12T10:35:59;11.00;99.90
17341;DHT22;8788;49.930;8.660;2023-02-12T10:38:31;11.00;99.90
17341;DHT22;8788;49.930;8.660;2023-02-12T10:40:59;10.90;99.90
17341;DHT22;8788;49.930;8.660;2023-02-12T10:43:29;10.90;99.90
17341;DHT22;8788;49.930;8.660;2023-02-12T10:45:57;11.10;99.90
17341;DHT22;8788;49.930;8.660;2023-02-12T10:48:28;11.20;99.90
17341;DHT22;8788;49.930;8.660;2023-02-12T10:51:09;11.40;99.90
17341;DHT22;8788;49.930;8.660;2023-02-12T10:53:43;11.50;99.90
17341;DHT22;8788;49.930;8.660;2023-02-12T10:56:15;11.50;99.90
17341;DHT22;8788;49.930;8.660;2023-02-12T10:58:54;11.50;99.90
17341;DHT22;8788;49.930;8.660;2023-02-12T11:01:25;11.60;99.90
17341;DHT22;8788;49.930;8.660;2023-02-12T11:03:53;11.60;99.90
17341;DHT22;8788;49.930;8.660;2023-02-12T11:06:23;11.60;99.90
17341;DHT22;8788;49.930;8.660;2023-02-12T11:08:51;11.70;99.90
17341;DHT22;8788;49.930;8.660;2023-02-12T11:11:20;11.70;99.90
17341;DHT22;8788;49.930;8.660;2023-02-12T11:13:56;11.80;99.90
17341;DHT22;8788;49.930;8.660;2023-02-12T11:16:29;11.90;99.90
17341;DHT22;8788;49.930;8.660;2023-02-12T11:18:58;11.90;99.90
17341;DHT22;8788;49.930;8.660;2023-02-12T11:21:26;11.90;99.90
17341;DHT22;8788;49.930;8.660;2023-02-12T11:23:53;11.90;99.90
17341;DHT22;8788;49.930;8.660;2023-02-12T11:26:26;11.90;99.90
17341;DHT22;8788;49.930;8.660;2023-02-12T11:28:57;11.90;99.90
17341;DHT22;8788;49.930;8.660;2023-02-12T11:31:26;11.90;99.90
17341;DHT22;8788;49.930;8.660;2023-02-12T11:34:08;11.90;99.90
17341;DHT22;8788;49.930;8.660;2023-02-12T11:36:37;11.90;99.90
17341;DHT22;8788;49.930;8.660;2023-02-12T11:39:17;12.00;99.90
17341;DHT22;8788;49.930;8.660;2023-02-12T11:41:50;12.00;99.90
17341;DHT22;8788;49.930;8.660;2023-02-12T11:44:21;12.10;99.90
17341;DHT22;8788;49.930;8.660;2023-02-12T11:46:52;12.10;99.90
17341;DHT22;8788;49.930;8.660;2023-02-12T11:49:23;12.10;99.90
17341;DHT22;8788;49.930;8.660;2023-02-12T11:51:51;12.10;99.90
17341;DHT22;8788;49.930;8.660;2023-02-12T11:54:21;12.10;99.90
17341;DHT22;8788;49.930;8.660;2023-02-12T11:56:50;12.10;99.90
17341;DHT22;8788;49.930;8.660;2023-02-12T11:59:33;12.10;99.90
17341;DHT22;8788;49.930;8.660;2023-02-12T12:02:08;12.10;99.90
17341;DHT22;8788;49.930;8.660;2023-02-12T12:04:40;12.00;99.90
17341;DHT22;8788;49.930;8.660;2023-02-12T12:07:12;11.90;99.90
17341;DHT22;8788;49.930;8.660;2023-02-12T12:09:47;12.00;99.90
17341;DHT22;8788;49.930;8.660;2023-02-12T12:12:19;12.10;99.90
17341;DHT22;8788;49.930;8.660;2023-02-12T12:14:53;12.10;99.90
17341;DHT22;8788;49.930;8.660;2023-02-12T12:17:47;12.10;99.90
17341;DHT22;8788;49.930;8.660;2023-02-12T12:20:38;12.10;99.90
17341;DHT22;8788;49.930;8.660;2023-02-12T12:23:10;12.10;99.90
17341;DHT22;8788;49.930;8.660;2023-02-12T12:25:43;12.20;99.90
17341;DHT22;8788;49.930;8.660;2023-02-12T12:28:25;12.20;99.90
17341;DHT22;8788;49.930;8.660;2023-02-12T12:31:06;12.10;99.90
17341;DHT22;8788;49.930;8.660;2023-02-12T12:33:39;12.10;99.90
17341;DHT22;8788;49.930;8.660;2023-02-12T12:39:15;12.10;99.90
17341;DHT22;8788;49.930;8.660;2023-02-12T12:42:01;12.10;99.90
17341;DHT22;8788;49.930;8.660;2023-02-12T12:44:40;12.00;99.90
17341;DHT22;8788;49.930;8.660;2023-02-12T12:47:20;12.00;99.90
17341;DHT22;8788;49.930;8.660;2023-02-12T12:50:08;12.00;99.90
17341;DHT22;8788;49.930;8.660;2023-02-12T12:53:06;12.00;99.90
17341;DHT22;8788;49.930;8.660;2023-02-12T12:55:51;12.00;99.90
17341;DHT22;8788;49.930;8.660;2023-02-12T12:58:26;12.10;99.90
17341;DHT22;8788;49.930;8.660;2023-02-12T13:01:11;12.10;99.90
17341;DHT22;8788;49.930;8.660;2023-02-12T13:06:55;12.20;99.90
17341;DHT22;8788;49.930;8.660;2023-02-12T13:09:54;12.20;99.90
17341;DHT22;8788;49.930;8.660;2023-02-12T13:12:44;12.20;99.90
17341;DHT22;8788;49.930;8.660;2023-02-12T13:15:21;12.20;99.90
17341;DHT22;8788;49.930;8.660;2023-02-12T13:17:59;12.30;99.90
17341;DHT22;8788;49.930;8.660;2023-02-12T13:20:38;12.30;99.90
17341;DHT22;8788;49.930;8.660;2023-02-12T13:23:13;12.30;99.90
17341;DHT22;8788;49.930;8.660;2023-02-12T13:25:47;12.40;99.90
17341;DHT22;8788;49.930;8.660;2023-02-12T13:28:23;12.60;99.90
17341;DHT22;8788;49.930;8.660;2023-02-12T13:30:54;12.70;99.90
17341;DHT22;8788;49.930;8.660;2023-02-12T13:33:24;12.80;99.90
17341;DHT22;8788;49.930;8.660;2023-02-12T13:35:57;12.90;99.90
17341;DHT22;8788;49.930;8.660;2023-02-12T13:38:30;13.00;99.90
17341;DHT22;8788;49.930;8.660;2023-02-12T13:41:01;13.20;99.90
17341;DHT22;8788;49.930;8.660;2023-02-12T13:43:42;13.50;99.90
17341;DHT22;8788;49.930;8.660;2023-02-12T13:46:15;13.70;99.90
17341;DHT22;8788;49.930;8.660;2023-02-12T13:48:55;14.00;99.90
17341;DHT22;8788;49.930;8.660;2023-02-12T13:51:33;14.50;99.90
17341;DHT22;8788;49.930;8.660;2023-02-12T13:54:13;14.70;99.90
17341;DHT22;8788;49.930;8.660;2023-02-12T13:56:45;14.90;99.90
17341;DHT22;8788;49.930;8.660;2023-02-12T13:59:44;15.20;99.90
17341;DHT22;8788;49.930;8.660;2023-02-12T14:05:30;15.70;99.90
17341;DHT22;8788;49.930;8.660;2023-02-12T14:08:04;16.00;99.90
17341;DHT22;8788;49.930;8.660;2023-02-12T14:10:34;15.80;99.90
17341;DHT22;8788;49.930;8.660;2023-02-12T14:13:15;15.60;99.90
17341;DHT22;8788;49.930;8.660;2023-02-12T14:15:46;15.60;99.90
17341;DHT22;8788;49.930;8.660;2023-02-12T14:18:28;15.50;99.90
17341;DHT22;8788;49.930;8.660;2023-02-12T14:27:35;15.20;99.90
17341;DHT22;8788;49.930;8.660;2023-02-12T14:33:20;15.70;99.90
17341;DHT22;8788;49.930;8.660;2023-02-12T14:35:48;15.70;99.90
17341;DHT22;8788;49.930;8.660;2023-02-12T14:39:01;15.90;99.90
17341;DHT22;8788;49.930;8.660;2023-02-12T14:41:36;16.00;99.90
17341;DHT22;8788;49.930;8.660;2023-02-12T14:44:37;15.70;99.90
17341;DHT22;8788;49.930;8.660;2023-02-12T14:47:11;15.50;99.90
17341;DHT22;8788;49.930;8.660;2023-02-12T14:49:42;17.70;99.90
17341;DHT22;8788;49.930;8.660;2023-02-12T14:52:15;18.10;99.90
17341;DHT22;8788;49.930;8.660;2023-02-12T14:54:46;17.90;99.90
17341;DHT22;8788;49.930;8.660;2023-02-12T14:57:21;17.00;99.90
17341;DHT22;8788;49.930;8.660;2023-02-12T14:59:53;16.50;99.90
17341;DHT22;8788;49.930;8.660;2023-02-12T15:02:24;17.30;99.90
17341;DHT22;8788;49.930;8.660;2023-02-12T15:04:53;18.70;99.90
17341;DHT22;8788;49.930;8.660;2023-02-12T15:07:26;20.80;99.90
17341;DHT22;8788;49.930;8.660;2023-02-12T15:09:57;22.60;99.60
17341;DHT22;8788;49.930;8.660;2023-02-12T15:12:36;24.10;96.90
17341;DHT22;8788;49.930;8.660;2023-02-12T15:15:12;25.20;93.90
17341;DHT22;8788;49.930;8.660;2023-02-12T15:17:47;25.60;91.00
17341;DHT22;8788;49.930;8.660;2023-02-12T15:20:21;25.40;89.40
17341;DHT22;8788;49.930;8.660;2023-02-12T15:22:50;25.20;87.30
17341;DHT22;8788;49.930;8.660;2023-02-12T15:25:21;24.60;86.90
17341;DHT22;8788;49.930;8.660;2023-02-12T15:27:51;24.10;86.60
17341;DHT22;8788;49.930;8.660;2023-02-12T15:30:22;23.70;87.40
17341;DHT22;8788;49.930;8.660;2023-02-12T15:32:50;23.20;88.20
17341;DHT22;8788;49.930;8.660;2023-02-12T15:35:23;23.00;88.00
17341;DHT22;8788;49.930;8.660;2023-02-12T15:37:54;22.60;88.00
17341;DHT22;8788;49.930;8.660;2023-02-12T15:40:22;21.50;88.30
17341;DHT22;8788;49.930;8.660;2023-02-12T15:42:55;19.60;90.60
17341;DHT22;8788;49.930;8.660;2023-02-12T15:45:26;17.90;92.40
17341;DHT22;8788;49.930;8.660;2023-02-12T15:48:10;16.80;94.30
17341;DHT22;8788;49.930;8.660;2023-02-12T15:50:48;15.90;95.90
17341;DHT22;8788;49.930;8.660;2023-02-12T15:53:16;15.20;97.80
17341;DHT22;8788;49.930;8.660;2023-02-12T15:55:47;14.80;98.80
17341;DHT22;8788;49.930;8.660;2023-02-12T15:58:20;14.50;99.90
17341;DHT22;8788;49.930;8.660;2023-02-12T16:00:50;14.20;99.90
17341;DHT22;8788;49.930;8.660;2023-02-12T16:03:20;13.80;99.90
17341;DHT22;8788;49.930;8.660;2023-02-12T16:05:48;13.60;99.90
17341;DHT22;8788;49.930;8.660;2023-02-12T16:08:16;13.30;99.90
17341;DHT22;8788;49.930;8.660;2023-02-12T16:10:47;13.10;99.90
17341;DHT22;8788;49.930;8.660;2023-02-12T16:13:15;12.90;99.90
17341;DHT22;8788;49.930;8.660;2023-02-12T16:15:43;12.70;99.90
17341;DHT22;8788;49.930;8.660;2023-02-12T16:18:24;12.50;99.90
17341;DHT22;8788;49.930;8.660;2023-02-12T16:21:02;12.40;99.90
17341;DHT22;8788;49.930;8.660;2023-02-12T16:23:30;12.20;99.90
17341;DHT22;8788;49.930;8.660;2023-02-12T16:25:57;12.10;99.90
17341;DHT22;8788;49.930;8.660;2023-02-12T16:28:27;11.90;99.90
17341;DHT22;8788;49.930;8.660;2023-02-12T16:31:07;11.90;99.90
17341;DHT22;8788;49.930;8.660;2023-02-12T16:33:43;11.80;99.90
17341;DHT22;8788;49.930;8.660;2023-02-12T16:36:24;11.60;99.90
17341;DHT22;8788;49.930;8.660;2023-02-12T16:38:53;11.50;99.90
17341;DHT22;8788;49.930;8.660;2023-02-12T16:41:23;11.50;99.90
17341;DHT22;8788;49.930;8.660;2023-02-12T16:46:59;11.30;99.90
17341;DHT22;8788;49.930;8.660;2023-02-12T16:49:28;11.20;99.90